createdAt,value
2022-12-29T00:01:42.608Z,86.20
2022-12-29T00:06:46.485Z,85.90
2022-12-29T00:11:51.208Z,86.10
2022-12-29T00:16:56.251Z,86.30
2022-12-29T00:22:17.867Z,85.90
2022-12-29T00:27:39.239Z,85.70
2022-12-29T00:33:01.682Z,85.70
2022-12-29T00:38:25.028Z,85.70
2022-12-29T00:43:45.935Z,85.70
2022-12-29T00:49:08.309Z,85.70
2022-12-29T00:54:11.961Z,85.70
2022-12-29T00:59:15.887Z,85.80
2022-12-29T01:04:23.900Z,85.70
2022-12-29T01:09:59.413Z,85.80
2022-12-29T01:15:02.908Z,85.90
2022-12-29T01:20:08.992Z,85.90
2022-12-29T01:25:12.447Z,85.90
2022-12-29T01:30:15.973Z,85.90
2022-12-29T01:35:23.264Z,85.90
2022-12-29T01:40:27.175Z,86.00
2022-12-29T01:45:30.704Z,85.70
2022-12-29T01:50:38.210Z,85.80
2022-12-29T01:55:45.558Z,86.00
2022-12-29T02:00:49.119Z,85.80
2022-12-29T02:05:57.027Z,85.80
2022-12-29T02:11:02.126Z,85.90
2022-12-29T02:16:15.194Z,85.70
2022-12-29T02:21:52.985Z,85.90
2022-12-29T02:27:33.499Z,85.70
2022-12-29T02:32:45.169Z,85.60
2022-12-29T02:37:54.094Z,85.70
2022-12-29T02:43:04.428Z,86.10
2022-12-29T02:48:13.112Z,85.80
2022-12-29T02:53:18.509Z,85.90
2022-12-29T02:58:23.898Z,86.10
2022-12-29T03:03:38.667Z,85.90
2022-12-29T03:08:48.594Z,86.10
2022-12-29T03:14:11.822Z,86.20
2022-12-29T03:19:21.495Z,86.20
2022-12-29T03:24:28.239Z,86.00
2022-12-29T03:29:34.076Z,86.10
2022-12-29T03:34:39.713Z,86.20
2022-12-29T03:39:43.712Z,86.10
2022-12-29T03:44:47.397Z,86.20
2022-12-29T03:49:52.689Z,86.10
2022-12-29T03:54:56.184Z,86.30
2022-12-29T03:59:59.698Z,86.30
2022-12-29T04:05:04.837Z,86.10
2022-12-29T04:10:08.901Z,86.40
2022-12-29T04:15:12.790Z,86.30
2022-12-29T04:20:35.041Z,86.40
2022-12-29T04:25:38.508Z,86.40
2022-12-29T04:30:42.048Z,86.20
2022-12-29T04:35:46.932Z,86.30
2022-12-29T04:40:50.839Z,86.20
2022-12-29T04:45:54.329Z,86.40
2022-12-29T04:50:59.236Z,86.40
2022-12-29T04:56:02.790Z,86.30
2022-12-29T05:01:06.291Z,86.30
2022-12-29T05:06:11.224Z,86.20
2022-12-29T05:11:14.664Z,86.40
2022-12-29T05:16:18.378Z,86.40
2022-12-29T05:21:23.640Z,86.20
2022-12-29T05:26:27.602Z,86.10
2022-12-29T05:31:31.339Z,86.30
2022-12-29T05:36:38.268Z,86.40
2022-12-29T05:41:41.997Z,86.50
2022-12-29T05:46:45.475Z,86.40
2022-12-29T05:51:50.483Z,86.30
2022-12-29T05:56:54.004Z,86.30
2022-12-29T06:01:57.710Z,86.50
2022-12-29T06:07:02.754Z,86.50
2022-12-29T06:12:07.158Z,86.40
2022-12-29T06:17:10.949Z,86.50
2022-12-29T06:22:15.909Z,86.40
2022-12-29T06:27:19.398Z,86.40
2022-12-29T06:32:23.127Z,86.40
2022-12-29T06:37:28.072Z,86.60
2022-12-29T06:42:31.651Z,86.50
2022-12-29T06:47:35.245Z,86.50
2022-12-29T06:52:40.384Z,86.60
2022-12-29T06:57:43.822Z,86.50
2022-12-29T07:02:47.468Z,86.60
2022-12-29T07:07:53.497Z,86.70
2022-12-29T07:12:56.928Z,86.70
2022-12-29T07:18:00.379Z,86.40
2022-12-29T07:23:05.289Z,86.80
2022-12-29T07:28:09.115Z,86.80
2022-12-29T07:33:12.661Z,86.70
2022-12-29T07:38:17.663Z,86.70
2022-12-29T07:43:21.111Z,87.00
2022-12-29T07:48:24.763Z,86.90
2022-12-29T07:53:29.719Z,86.70
2022-12-29T07:58:33.254Z,86.60
2022-12-29T08:03:37.527Z,86.60
2022-12-29T08:08:42.611Z,86.70
2022-12-29T08:13:46.060Z,86.50
2022-12-29T08:18:49.719Z,86.60
2022-12-29T08:23:54.633Z,86.50
2022-12-29T08:28:58.214Z,87.00
2022-12-29T08:34:04.513Z,86.80
2022-12-29T08:39:09.448Z,86.50
2022-12-29T08:44:12.939Z,86.50
2022-12-29T08:49:16.550Z,86.40
2022-12-29T08:54:21.502Z,86.60
2022-12-29T08:59:25.124Z,86.30
2022-12-29T09:04:28.711Z,86.50
2022-12-29T09:09:33.751Z,86.50
2022-12-29T09:14:37.340Z,86.70
2022-12-29T09:19:40.910Z,87.00
2022-12-29T09:24:45.834Z,86.70
2022-12-29T09:29:49.285Z,86.80
2022-12-29T09:34:52.806Z,86.70
2022-12-29T09:39:57.737Z,86.50
2022-12-29T09:45:08.843Z,86.70
2022-12-29T09:50:18.683Z,86.90
2022-12-29T09:55:26.480Z,86.80
2022-12-29T10:00:40.085Z,86.90
2022-12-29T10:05:48.681Z,86.80
2022-12-29T10:10:57.350Z,86.90
2022-12-29T10:16:05.812Z,87.20
2022-12-29T10:21:14.849Z,87.10
2022-12-29T10:26:21.685Z,87.40
2022-12-29T10:31:27.013Z,87.40
2022-12-29T10:36:36.467Z,87.40
2022-12-29T10:41:46.400Z,87.40
2022-12-29T10:46:56.647Z,87.40
2022-12-29T10:52:02.923Z,87.80
2022-12-29T10:57:11.372Z,87.90
2022-12-29T11:02:27.175Z,88.40
2022-12-29T11:07:31.481Z,88.30
2022-12-29T11:12:37.630Z,88.20
2022-12-29T11:17:46.758Z,88.20
2022-12-29T11:22:50.340Z,88.50
2022-12-29T11:28:04.062Z,88.40
2022-12-29T11:33:07.689Z,88.50
2022-12-29T11:38:21.694Z,88.60
2022-12-29T11:43:34.680Z,88.60
2022-12-29T11:48:42.475Z,88.60
2022-12-29T11:53:48.766Z,88.60
2022-12-29T11:58:54.543Z,88.80
2022-12-29T12:04:04.348Z,88.90
2022-12-29T12:09:13.035Z,88.70
2022-12-29T12:14:22.529Z,88.80
2022-12-29T12:19:34.952Z,88.70
2022-12-29T12:24:41.729Z,88.90
2022-12-29T12:29:49.640Z,89.10
2022-12-29T12:34:53.536Z,89.10
2022-12-29T12:40:17.272Z,88.30
2022-12-29T12:45:36.773Z,87.60
2022-12-29T12:50:51.571Z,87.70
2022-12-29T12:56:06.428Z,88.10
2022-12-29T13:01:21.278Z,88.20
2022-12-29T13:06:32.997Z,88.20
2022-12-29T13:11:48.753Z,88.40
2022-12-29T13:16:58.315Z,88.40
2022-12-29T13:22:08.966Z,87.70
2022-12-29T13:27:16.988Z,88.10
2022-12-29T13:32:34.727Z,87.80
2022-12-29T13:37:47.125Z,87.70
2022-12-29T13:42:50.898Z,87.90
2022-12-29T13:47:59.184Z,88.00
2022-12-29T13:53:08.784Z,88.00
2022-12-29T13:58:16.744Z,87.70
2022-12-29T14:03:41.064Z,88.10
2022-12-29T14:08:45.111Z,88.30
2022-12-29T14:13:49.624Z,88.10
2022-12-29T14:18:55.772Z,88.50
2022-12-29T14:24:31.154Z,88.50
2022-12-29T14:29:47.720Z,88.60
2022-12-29T14:34:53.329Z,88.30
2022-12-29T14:40:08.287Z,88.60
2022-12-29T14:45:29.262Z,88.70
2022-12-29T14:50:41.375Z,88.80
2022-12-29T14:55:47.599Z,89.00
2022-12-29T15:00:51.184Z,89.50
2022-12-29T15:05:58.260Z,89.30
2022-12-29T15:11:04.864Z,89.30
2022-12-29T15:16:23.693Z,89.50
2022-12-29T15:21:32.268Z,89.30
2022-12-29T15:26:39.949Z,89.10
2022-12-29T15:31:49.485Z,89.30
2022-12-29T15:36:55.725Z,89.10
2022-12-29T15:42:02.576Z,88.90
2022-12-29T15:47:07.120Z,88.90
2022-12-29T15:52:12.473Z,88.50
2022-12-29T15:57:25.189Z,88.60
2022-12-29T16:02:29.370Z,88.50
2022-12-29T16:07:41.540Z,88.20
2022-12-29T16:12:45.390Z,88.70
2022-12-29T16:17:51.820Z,88.60
2022-12-29T16:22:58.740Z,88.40
2022-12-29T16:28:02.634Z,88.30
2022-12-29T16:33:07.403Z,86.80
2022-12-29T16:38:17.796Z,87.40
2022-12-29T16:43:23.701Z,86.90
2022-12-29T16:48:29.180Z,87.00
2022-12-29T16:53:36.032Z,87.50
2022-12-29T16:58:42.046Z,87.60
2022-12-29T17:03:51.102Z,87.70
2022-12-29T17:08:56.031Z,87.50
2022-12-29T17:13:59.518Z,87.70
2022-12-29T17:19:02.991Z,87.60
2022-12-29T17:24:16.392Z,87.70
2022-12-29T17:29:25.024Z,87.80
2022-12-29T17:34:28.614Z,88.00
2022-12-29T17:39:33.529Z,87.90
2022-12-29T17:44:37.588Z,88.10
2022-12-29T17:49:41.099Z,88.30
2022-12-29T17:54:48.345Z,88.50
2022-12-29T17:59:51.805Z,88.50
2022-12-29T18:04:55.493Z,88.40
2022-12-29T18:10:00.378Z,88.60
2022-12-29T18:15:04.003Z,88.50
2022-12-29T18:20:08.388Z,88.80
2022-12-29T18:25:25.037Z,88.80
2022-12-29T18:30:28.505Z,88.60
2022-12-29T18:35:36.467Z,88.90
2022-12-29T18:40:41.347Z,89.00
2022-12-29T18:45:46.200Z,88.90
2022-12-29T18:50:51.981Z,89.40
2022-12-29T18:55:57.685Z,89.50
2022-12-29T19:01:01.238Z,89.20
2022-12-29T19:06:04.793Z,89.20
2022-12-29T19:11:09.724Z,89.60
2022-12-29T19:16:17.025Z,89.50
2022-12-29T19:21:21.543Z,89.80
2022-12-29T19:26:31.320Z,89.60
2022-12-29T19:31:35.240Z,89.50
2022-12-29T19:36:38.795Z,89.50
2022-12-29T19:41:43.734Z,89.70
2022-12-29T19:46:47.318Z,89.60
2022-12-29T19:51:50.890Z,89.60
2022-12-29T19:56:55.740Z,89.70
2022-12-29T20:01:59.358Z,89.20
2022-12-29T20:07:02.898Z,89.40
2022-12-29T20:12:08.153Z,89.70
2022-12-29T20:17:13.197Z,89.30
2022-12-29T20:22:16.746Z,89.60
2022-12-29T20:27:21.632Z,89.40
2022-12-29T20:32:26.161Z,89.30
2022-12-29T20:37:29.687Z,89.20
2022-12-29T20:42:34.624Z,89.30
2022-12-29T20:47:38.207Z,89.10
2022-12-29T20:52:41.779Z,89.10
2022-12-29T21:03:10.303Z,89.10
2022-12-29T21:08:13.939Z,88.60
2022-12-29T21:13:19.313Z,89.30
2022-12-29T21:18:22.832Z,89.30
2022-12-29T21:23:26.498Z,88.90
2022-12-29T21:28:31.389Z,89.10
2022-12-29T21:33:34.883Z,89.30
2022-12-29T21:38:38.394Z,89.20
2022-12-29T21:43:43.788Z,89.40
2022-12-29T21:48:48.924Z,89.40
2022-12-29T21:54:17.352Z,89.60
2022-12-29T21:59:39.915Z,89.40
2022-12-29T22:05:00.782Z,89.60
2022-12-29T22:10:21.647Z,89.10
2022-12-29T22:15:27.046Z,89.60
2022-12-29T22:20:32.891Z,89.40
2022-12-29T22:25:36.504Z,89.10
2022-12-29T22:30:41.442Z,89.20
2022-12-29T22:35:45.073Z,89.30
2022-12-29T22:40:48.551Z,89.10
2022-12-29T22:45:53.372Z,88.80
2022-12-29T22:50:56.868Z,89.10
2022-12-29T22:56:08.300Z,89.10
2022-12-29T23:01:15.112Z,89.20
2022-12-29T23:06:19.010Z,89.10
2022-12-29T23:11:22.565Z,88.90
2022-12-29T23:16:27.879Z,88.90
2022-12-29T23:21:31.531Z,88.70
2022-12-29T23:26:38.709Z,89.00
2022-12-29T23:31:44.096Z,89.00
2022-12-29T23:36:47.677Z,89.20
2022-12-29T23:41:51.272Z,88.50
2022-12-29T23:46:56.226Z,88.70
2022-12-29T23:51:59.761Z,88.40
2022-12-29T23:57:03.254Z,88.60
